createdAt,value
2019-02-14T00:02:37.752Z,1.93
2019-02-14T00:05:15.927Z,1.70
2019-02-14T00:07:37.804Z,1.60
2019-02-14T00:10:05.858Z,2.00
2019-02-14T00:13:02.263Z,2.10
2019-02-14T00:15:30.296Z,1.97
2019-02-14T00:18:31.319Z,1.60
2019-02-14T00:21:10.430Z,1.57
2019-02-14T00:23:46.311Z,1.93
2019-02-14T00:26:27.780Z,1.40
2019-02-14T00:29:14.352Z,1.67
2019-02-14T00:31:45.501Z,1.60
2019-02-14T00:34:13.903Z,2.03
2019-02-14T00:36:55.663Z,2.00
2019-02-14T00:39:26.080Z,1.80
2019-02-14T00:41:55.420Z,1.90
2019-02-14T00:44:30.817Z,2.03
2019-02-14T00:46:59.094Z,1.93
2019-02-14T00:49:32.895Z,1.80
2019-02-14T00:52:12.854Z,1.90
2019-02-14T00:54:51.644Z,1.90
2019-02-14T00:57:28.664Z,2.20
2019-02-14T01:00:14.997Z,1.97
2019-02-14T01:02:47.319Z,1.70
2019-02-14T01:05:16.610Z,1.50
2019-02-14T01:07:52.395Z,1.90
2019-02-14T01:10:26.083Z,1.80
2019-02-14T01:13:03.553Z,1.77
2019-02-14T01:15:44.510Z,1.60
2019-02-14T01:18:13.164Z,1.70
2019-02-14T01:20:43.165Z,1.83
2019-02-14T01:23:11.183Z,1.70
2019-02-14T01:25:43.066Z,2.20
2019-02-14T01:28:11.120Z,1.60
2019-02-14T01:30:40.129Z,1.90
2019-02-14T01:33:08.132Z,1.90
2019-02-14T01:35:41.866Z,1.40
2019-02-14T01:38:05.881Z,1.70
2019-02-14T01:40:33.954Z,1.97
2019-02-14T01:43:01.986Z,1.77
2019-02-14T01:45:30.230Z,2.13
2019-02-14T01:48:03.475Z,1.80
2019-02-14T01:50:31.518Z,1.60
2019-02-14T01:52:59.626Z,1.50
2019-02-14T01:55:27.631Z,1.87
2019-02-14T01:57:58.663Z,1.80
2019-02-14T02:00:26.741Z,1.67
2019-02-14T02:02:54.859Z,1.80
2019-02-14T02:05:24.012Z,2.00
2019-02-14T02:07:52.035Z,1.90
2019-02-14T02:10:20.008Z,2.13
2019-02-14T02:12:48.560Z,2.00
2019-02-14T02:15:16.882Z,1.97
2019-02-14T02:17:45.971Z,2.00
2019-02-14T02:20:14.506Z,2.10
2019-02-14T02:22:44.996Z,1.70
2019-02-14T02:25:15.680Z,2.00
2019-02-14T02:27:43.853Z,2.20
2019-02-14T02:30:13.085Z,1.93
2019-02-14T02:32:42.931Z,1.87
2019-02-14T02:35:11.361Z,1.70
2019-02-14T02:37:39.562Z,1.90
2019-02-14T02:40:11.373Z,1.87
2019-02-14T02:42:39.811Z,2.10
2019-02-14T02:45:09.211Z,1.80
2019-02-14T02:47:40.490Z,1.80
2019-02-14T02:50:09.756Z,2.20
2019-02-14T02:52:37.964Z,2.07
2019-02-14T02:55:07.529Z,1.67
2019-02-14T02:57:35.650Z,2.13
2019-02-14T03:00:06.407Z,2.40
2019-02-14T03:02:34.648Z,1.83
2019-02-14T03:05:02.687Z,2.30
2019-02-14T03:07:30.804Z,2.00
2019-02-14T03:10:00.127Z,1.80
2019-02-14T03:12:28.661Z,2.10
2019-02-14T03:14:56.750Z,2.20
2019-02-14T03:17:25.993Z,2.10
2019-02-14T03:19:54.099Z,2.20
2019-02-14T03:22:22.144Z,2.00
2019-02-14T03:24:50.212Z,2.10
2019-02-14T03:27:19.498Z,2.13
2019-02-14T03:29:50.617Z,1.77
2019-02-14T03:32:18.732Z,2.40
2019-02-14T03:34:46.842Z,2.13
2019-02-14T03:37:16.592Z,2.17
2019-02-14T03:39:45.147Z,2.00
2019-02-14T03:42:13.274Z,1.93
2019-02-14T03:44:41.309Z,2.00
2019-02-14T03:47:09.284Z,2.00
2019-02-14T03:49:42.932Z,2.03
2019-02-14T03:52:07.275Z,2.03
2019-02-14T03:54:35.243Z,2.00
2019-02-14T03:57:03.229Z,2.13
2019-02-14T03:59:32.119Z,1.80
2019-02-14T04:02:00.198Z,1.97
2019-02-14T04:04:31.265Z,2.50
2019-02-14T04:06:59.262Z,2.17
2019-02-14T04:09:27.277Z,2.10
2019-02-14T04:11:55.308Z,2.10
2019-02-14T04:14:23.304Z,2.40
2019-02-14T04:16:51.372Z,2.17
2019-02-14T04:19:20.507Z,2.30
2019-02-14T04:21:48.480Z,2.00
2019-02-14T04:24:16.476Z,2.30
2019-02-14T04:26:44.475Z,2.40
2019-02-14T04:29:12.543Z,2.33
2019-02-14T04:31:42.255Z,1.97
2019-02-14T04:34:12.246Z,2.13
2019-02-14T04:36:40.163Z,2.30
2019-02-14T04:39:08.171Z,2.20
2019-02-14T04:41:36.211Z,2.37
2019-02-14T04:44:04.266Z,2.53
2019-02-14T04:46:32.207Z,2.50
2019-02-14T04:49:00.155Z,2.20
2019-02-14T04:51:28.087Z,2.43
2019-02-14T04:53:56.038Z,2.37
2019-02-14T04:56:24.028Z,3.13
2019-02-14T04:58:52.010Z,2.73
2019-02-14T05:01:20.012Z,2.67
2019-02-14T05:03:48.016Z,2.60
2019-02-14T05:06:15.987Z,2.43
2019-02-14T05:08:44.035Z,3.00
2019-02-14T05:11:12.091Z,2.57
2019-02-14T05:13:40.194Z,2.87
2019-02-14T05:16:08.236Z,2.72
2019-02-14T05:18:36.276Z,2.83
2019-02-14T05:21:04.327Z,2.93
2019-02-14T05:23:32.332Z,3.10
2019-02-14T05:26:00.353Z,3.00
2019-02-14T05:28:31.160Z,3.60
2019-02-14T05:30:59.144Z,3.57
2019-02-14T05:33:27.247Z,3.30
2019-02-14T05:36:01.204Z,3.13
2019-02-14T05:38:29.384Z,3.57
2019-02-14T05:40:57.358Z,3.17
2019-02-14T05:43:25.349Z,3.77
2019-02-14T05:45:53.533Z,3.60
2019-02-14T05:48:23.152Z,3.33
2019-02-14T05:50:51.514Z,3.23
2019-02-14T05:53:19.564Z,3.23
2019-02-14T05:55:49.289Z,3.33
2019-02-14T05:58:17.239Z,4.50
2019-02-14T06:00:46.650Z,3.33
2019-02-14T06:03:14.842Z,4.20
2019-02-14T06:05:47.323Z,3.93
2019-02-14T06:08:15.344Z,4.67
2019-02-14T06:10:43.425Z,3.80
2019-02-14T06:13:11.977Z,3.80
2019-02-14T06:15:42.791Z,3.70
2019-02-14T06:18:10.828Z,3.83
2019-02-14T06:20:40.156Z,4.58
2019-02-14T06:23:08.168Z,4.30
2019-02-14T06:25:36.119Z,4.00
2019-02-14T06:28:05.756Z,4.40
2019-02-14T06:30:33.827Z,3.67
2019-02-14T06:33:02.386Z,4.40
2019-02-14T06:35:30.439Z,4.67
2019-02-14T06:37:58.504Z,3.60
2019-02-14T06:40:26.451Z,4.37
2019-02-14T06:42:55.147Z,4.50
2019-02-14T06:45:24.653Z,4.37
2019-02-14T06:47:54.396Z,4.00
2019-02-14T06:50:22.388Z,4.50
2019-02-14T06:52:50.613Z,4.13
2019-02-14T06:55:21.068Z,4.57
2019-02-14T06:57:49.076Z,3.90
2019-02-14T07:00:17.161Z,4.50
2019-02-14T07:02:45.258Z,4.23
2019-02-14T07:05:13.295Z,4.43
2019-02-14T07:07:41.645Z,3.90
2019-02-14T07:10:11.883Z,4.83
2019-02-14T07:12:39.862Z,4.53
2019-02-14T07:15:08.635Z,4.27
2019-02-14T07:17:36.673Z,4.20
2019-02-14T07:20:04.795Z,5.30
2019-02-14T07:22:34.261Z,4.30
2019-02-14T07:25:02.351Z,3.90
2019-02-14T07:27:30.390Z,4.03
2019-02-14T07:29:58.536Z,4.10
2019-02-14T07:32:29.400Z,4.37
2019-02-14T07:34:58.907Z,4.53
2019-02-14T07:37:27.218Z,4.50
2019-02-14T07:39:57.480Z,3.90
2019-02-14T07:42:26.327Z,3.93
2019-02-14T07:44:56.571Z,4.47
2019-02-14T07:47:24.590Z,3.73
2019-02-14T07:49:52.655Z,3.90
2019-02-14T07:52:25.166Z,4.20
2019-02-14T07:54:50.341Z,3.80
2019-02-14T07:57:18.274Z,4.13
2019-02-14T07:59:46.212Z,3.93
2019-02-14T08:02:15.607Z,4.00
2019-02-14T08:04:47.184Z,3.83
2019-02-14T08:07:17.536Z,3.03
2019-02-14T08:09:45.763Z,4.33
2019-02-14T08:12:13.888Z,4.77
2019-02-14T08:14:41.953Z,3.83
2019-02-14T08:17:10.259Z,3.87
2019-02-14T08:19:39.673Z,4.43
2019-02-14T08:22:07.694Z,4.03
2019-02-14T08:24:35.804Z,3.50
2019-02-14T08:27:03.730Z,4.00
2019-02-14T08:29:31.979Z,3.60
2019-02-14T08:32:01.102Z,5.67
2019-02-14T08:34:30.754Z,3.80
2019-02-14T08:36:58.748Z,3.50
2019-02-14T08:39:28.183Z,3.60
2019-02-14T08:41:56.604Z,3.63
2019-02-14T08:44:24.599Z,3.60
2019-02-14T08:46:52.639Z,4.00
2019-02-14T08:49:20.587Z,3.83
2019-02-14T08:51:48.644Z,3.33
2019-02-14T08:54:16.740Z,4.17
2019-02-14T08:56:44.757Z,4.37
2019-02-14T08:59:17.533Z,4.07
2019-02-14T09:01:45.601Z,3.60
2019-02-14T09:04:13.716Z,4.27
2019-02-14T09:06:41.741Z,4.40
2019-02-14T09:09:11.140Z,4.17
2019-02-14T09:11:51.202Z,3.63
2019-02-14T09:14:20.066Z,4.03
2019-02-14T09:16:48.569Z,4.00
2019-02-14T09:19:24.833Z,3.70
2019-02-14T09:21:54.076Z,4.43
2019-02-14T09:24:23.371Z,3.83
2019-02-14T09:26:53.526Z,4.27
2019-02-14T09:29:21.624Z,3.87
2019-02-14T09:31:49.775Z,3.97
2019-02-14T09:34:33.415Z,4.30
2019-02-14T09:37:01.197Z,4.73
2019-02-14T09:39:29.615Z,4.07
2019-02-14T09:42:02.058Z,3.87
2019-02-14T09:44:30.539Z,3.77
2019-02-14T09:46:58.797Z,3.60
2019-02-14T09:49:27.163Z,3.40
2019-02-14T09:51:55.205Z,3.40
2019-02-14T09:54:23.215Z,3.43
2019-02-14T09:56:53.744Z,3.50
2019-02-14T09:59:21.691Z,3.63
2019-02-14T10:01:49.792Z,3.40
2019-02-14T10:04:18.732Z,2.83
2019-02-14T10:06:47.987Z,3.60
2019-02-14T10:09:16.200Z,2.77
2019-02-14T10:11:44.397Z,3.13
2019-02-14T10:14:12.430Z,2.67
2019-02-14T10:16:40.434Z,2.70
2019-02-14T10:19:12.559Z,2.60
2019-02-14T10:21:40.728Z,2.50
2019-02-14T10:24:09.997Z,2.70
2019-02-14T10:26:38.010Z,2.97
2019-02-14T10:29:06.069Z,2.60
2019-02-14T10:31:34.082Z,2.23
2019-02-14T10:34:02.779Z,8.83
2019-02-14T10:36:34.048Z,6.83
2019-02-14T10:39:05.130Z,3.40
2019-02-14T10:41:35.037Z,2.97
2019-02-14T10:44:03.086Z,2.40
2019-02-14T10:46:31.076Z,2.27
2019-02-14T10:48:59.093Z,2.80
2019-02-14T10:51:27.124Z,2.50
2019-02-14T10:53:55.601Z,2.47
2019-02-14T10:56:23.646Z,2.80
2019-02-14T10:58:51.740Z,2.37
2019-02-14T11:01:19.815Z,2.40
2019-02-14T11:03:50.244Z,2.43
2019-02-14T11:06:18.503Z,3.47
2019-02-14T11:08:46.649Z,3.33
2019-02-14T11:11:14.791Z,2.10
2019-02-14T11:13:43.521Z,1.77
2019-02-14T11:16:11.457Z,1.90
2019-02-14T11:18:44.192Z,1.67
2019-02-14T11:21:11.041Z,1.70
2019-02-14T11:23:39.024Z,1.80
2019-02-14T11:26:08.642Z,2.07
2019-02-14T11:28:36.871Z,2.13
2019-02-14T11:31:04.902Z,2.07
2019-02-14T11:33:32.859Z,2.00
2019-02-14T11:36:00.840Z,2.00
2019-02-14T11:38:29.944Z,1.90
2019-02-14T11:41:00.066Z,2.20
2019-02-14T11:43:29.810Z,1.97
2019-02-14T11:46:00.893Z,2.20
2019-02-14T11:48:31.844Z,1.83
2019-02-14T11:50:59.958Z,2.00
2019-02-14T11:53:29.410Z,1.80
2019-02-14T11:55:57.612Z,1.97
2019-02-14T11:58:26.338Z,1.93
2019-02-14T12:00:54.407Z,1.80
2019-02-14T12:03:22.484Z,1.90
2019-02-14T12:05:50.436Z,1.83
2019-02-14T12:08:18.617Z,1.70
2019-02-14T12:10:46.644Z,2.17
2019-02-14T12:13:14.652Z,2.03
2019-02-14T12:15:45.561Z,2.00
2019-02-14T12:18:13.639Z,1.80
2019-02-14T12:20:47.979Z,1.73
2019-02-14T12:23:15.318Z,1.80
2019-02-14T12:25:43.576Z,1.87
2019-02-14T12:28:11.688Z,1.70
2019-02-14T12:30:42.729Z,1.93
2019-02-14T12:33:10.764Z,1.90
2019-02-14T12:35:38.863Z,1.67
2019-02-14T12:38:06.908Z,2.10
2019-02-14T12:40:34.942Z,1.73
2019-02-14T12:43:02.849Z,1.77
2019-02-14T12:45:30.786Z,1.57
2019-02-14T12:47:58.829Z,1.87
2019-02-14T12:50:26.832Z,2.07
2019-02-14T12:52:54.883Z,1.80
2019-02-14T12:55:22.984Z,1.60
2019-02-14T12:57:51.024Z,1.67
2019-02-14T13:00:19.829Z,1.73
2019-02-14T13:02:49.597Z,1.73
2019-02-14T13:05:17.605Z,1.73
2019-02-14T13:07:45.631Z,1.80
2019-02-14T13:10:13.851Z,1.80
2019-02-14T13:12:41.849Z,1.70
2019-02-14T13:15:11.372Z,1.60
2019-02-14T13:17:41.718Z,1.50
2019-02-14T13:20:11.796Z,1.90
2019-02-14T13:22:39.845Z,1.97
2019-02-14T13:25:08.516Z,1.87
2019-02-14T13:27:36.628Z,2.00
2019-02-14T13:30:05.046Z,1.93
2019-02-14T13:32:33.008Z,1.90
2019-02-14T13:35:01.082Z,1.70
2019-02-14T13:37:29.087Z,1.80
2019-02-14T13:39:57.157Z,1.50
2019-02-14T13:42:25.167Z,1.63
2019-02-14T13:44:54.759Z,1.83
2019-02-14T13:47:22.750Z,1.90
2019-02-14T13:49:50.865Z,1.70
2019-02-14T13:52:19.000Z,2.00
2019-02-14T13:54:47.009Z,1.77
2019-02-14T13:57:20.415Z,1.80
2019-02-14T13:59:51.416Z,2.07
2019-02-14T14:02:19.486Z,1.97
2019-02-14T14:04:47.460Z,2.20
2019-02-14T14:07:15.399Z,2.30
2019-02-14T14:09:43.429Z,2.17
2019-02-14T14:12:11.451Z,2.47
2019-02-14T14:14:39.548Z,2.30
2019-02-14T14:17:07.520Z,2.20
2019-02-14T14:19:35.476Z,2.40
2019-02-14T14:22:03.582Z,2.60
2019-02-14T14:24:32.744Z,1.93
2019-02-14T14:27:00.820Z,2.83
2019-02-14T14:29:28.959Z,2.53
2019-02-14T14:31:57.020Z,2.60
2019-02-14T14:34:24.975Z,2.40
2019-02-14T14:36:53.013Z,2.20
2019-02-14T14:39:22.703Z,2.20
2019-02-14T14:41:51.943Z,3.07
2019-02-14T14:44:30.250Z,2.40
2019-02-14T14:47:08.220Z,2.40
2019-02-14T14:49:36.311Z,2.40
2019-02-14T14:52:08.731Z,2.60
2019-02-14T14:54:34.140Z,2.50
2019-02-14T14:57:02.367Z,2.47
2019-02-14T14:59:31.795Z,2.50
2019-02-14T15:01:59.824Z,2.60
2019-02-14T15:04:27.965Z,2.33
2019-02-14T15:06:56.037Z,2.63
2019-02-14T15:09:24.219Z,2.37
2019-02-14T15:11:52.268Z,2.20
2019-02-14T15:14:20.420Z,2.90
2019-02-14T15:16:50.708Z,2.90
2019-02-14T15:19:18.721Z,2.60
2019-02-14T15:21:49.211Z,2.47
2019-02-14T15:24:17.164Z,2.40
2019-02-14T15:26:45.178Z,2.27
2019-02-14T15:29:14.487Z,2.80
2019-02-14T15:31:42.513Z,2.80
2019-02-14T15:34:10.600Z,2.80
2019-02-14T15:36:38.556Z,2.53
2019-02-14T15:39:07.005Z,2.70
2019-02-14T15:41:35.232Z,2.77
2019-02-14T15:44:08.033Z,3.00
2019-02-14T15:46:36.057Z,2.60
2019-02-14T15:49:04.105Z,2.87
2019-02-14T15:51:32.540Z,2.60
2019-02-14T15:54:03.762Z,2.67
2019-02-14T15:56:32.567Z,2.80
2019-02-14T15:59:02.936Z,2.77
2019-02-14T16:01:31.132Z,2.60
2019-02-14T16:03:59.183Z,2.57
2019-02-14T16:06:28.375Z,2.33
2019-02-14T16:08:56.956Z,2.53
2019-02-14T16:11:25.037Z,2.50
2019-02-14T16:13:54.906Z,2.60
2019-02-14T16:16:24.991Z,2.57
2019-02-14T16:18:53.088Z,2.67
2019-02-14T16:21:27.908Z,2.80
2019-02-14T16:23:56.949Z,2.47
2019-02-14T16:26:26.433Z,3.10
2019-02-14T16:28:54.433Z,2.80
2019-02-14T16:31:22.465Z,2.60
2019-02-14T16:33:50.477Z,3.27
2019-02-14T16:36:23.773Z,2.93
2019-02-14T16:38:56.309Z,2.53
2019-02-14T16:41:23.887Z,2.43
2019-02-14T16:43:51.873Z,2.87
2019-02-14T16:46:19.931Z,2.80
2019-02-14T16:48:47.952Z,2.50
2019-02-14T16:51:15.921Z,2.60
2019-02-14T16:53:44.000Z,2.60
2019-02-14T16:56:12.096Z,2.67
2019-02-14T16:58:40.540Z,2.80
2019-02-14T17:01:09.246Z,2.50
2019-02-14T17:03:37.316Z,2.80
2019-02-14T17:06:05.303Z,2.63
2019-02-14T17:08:34.882Z,3.07
2019-02-14T17:11:02.947Z,2.80
2019-02-14T17:13:31.154Z,2.60
2019-02-14T17:16:00.322Z,3.10
2019-02-14T17:18:28.562Z,3.07
2019-02-14T17:20:56.628Z,2.93
2019-02-14T17:23:24.736Z,2.63
2019-02-14T17:25:52.876Z,2.70
2019-02-14T17:28:22.658Z,2.70
2019-02-14T17:30:50.792Z,2.23
2019-02-14T17:33:18.830Z,2.20
2019-02-14T17:35:46.895Z,3.07
2019-02-14T17:38:15.000Z,2.90
2019-02-14T17:40:46.036Z,2.73
2019-02-14T17:43:12.780Z,2.73
2019-02-14T17:45:40.888Z,2.37
2019-02-14T17:48:08.863Z,2.57
2019-02-14T17:50:59.865Z,2.50
2019-02-14T17:53:30.097Z,2.50
2019-02-14T17:55:57.954Z,2.70
2019-02-14T17:58:26.045Z,2.70
2019-02-14T18:00:54.137Z,2.97
2019-02-14T18:03:22.260Z,2.90
2019-02-14T18:05:52.361Z,2.77
2019-02-14T18:08:21.242Z,2.83
2019-02-14T18:10:54.732Z,3.27
2019-02-14T18:13:19.113Z,2.90
2019-02-14T18:15:48.136Z,3.17
2019-02-14T18:18:16.306Z,2.83
2019-02-14T18:20:44.356Z,3.30
2019-02-14T18:23:12.429Z,3.58
2019-02-14T18:25:40.460Z,2.73
2019-02-14T18:28:08.574Z,2.80
2019-02-14T18:30:36.726Z,2.60
2019-02-14T18:33:07.911Z,2.87
2019-02-14T18:35:37.443Z,3.30
2019-02-14T18:38:05.515Z,2.77
2019-02-14T18:40:33.557Z,2.90
2019-02-14T18:43:01.524Z,2.90
2019-02-14T18:45:29.633Z,3.60
2019-02-14T18:47:57.768Z,3.70
2019-02-14T18:50:27.859Z,2.60
2019-02-14T18:52:56.559Z,3.43
2019-02-14T18:55:25.117Z,3.07
2019-02-14T18:57:53.190Z,3.30
2019-02-14T19:00:21.730Z,3.30
2019-02-14T19:02:49.954Z,2.80
2019-02-14T19:05:24.654Z,3.13
2019-02-14T19:07:52.938Z,4.27
2019-02-14T19:10:24.564Z,3.07
2019-02-14T19:12:53.843Z,3.13
2019-02-14T19:15:23.881Z,3.20
2019-02-14T19:17:51.934Z,2.97
2019-02-14T19:20:22.331Z,3.03
2019-02-14T19:22:50.363Z,3.00
2019-02-14T19:25:19.517Z,3.03
2019-02-14T19:27:49.962Z,3.77
2019-02-14T19:30:19.907Z,3.33
2019-02-14T19:32:49.063Z,3.93
2019-02-14T19:35:22.841Z,3.30
2019-02-14T19:37:47.266Z,2.97
2019-02-14T19:40:20.765Z,3.67
2019-02-14T19:42:48.946Z,3.67
2019-02-14T19:45:20.685Z,3.63
2019-02-14T19:47:48.460Z,4.40
2019-02-14T19:50:16.476Z,3.40
2019-02-14T19:52:45.301Z,3.43
2019-02-14T19:55:15.644Z,3.63
2019-02-14T19:57:45.609Z,4.00
2019-02-14T20:00:15.048Z,3.60
2019-02-14T20:02:44.791Z,3.30
2019-02-14T20:05:13.357Z,3.90
2019-02-14T20:07:41.693Z,3.93
2019-02-14T20:10:11.065Z,3.73
2019-02-14T20:12:39.248Z,3.73
2019-02-14T20:15:11.645Z,4.00
2019-02-14T20:17:46.209Z,3.87
2019-02-14T20:20:15.504Z,3.57
2019-02-14T20:22:43.738Z,3.13
2019-02-14T20:25:12.399Z,3.53
2019-02-14T20:27:42.308Z,3.57
2019-02-14T20:30:14.816Z,3.50
2019-02-14T20:32:46.045Z,3.53
2019-02-14T20:35:14.378Z,3.10
2019-02-14T20:37:44.226Z,3.20
2019-02-14T20:40:13.332Z,3.57
2019-02-14T20:42:41.595Z,3.17
2019-02-14T20:45:14.470Z,3.40
2019-02-14T20:47:46.095Z,3.83
2019-02-14T20:50:17.494Z,3.70
2019-02-14T20:52:46.368Z,3.77
2019-02-14T20:55:15.456Z,3.10
2019-02-14T20:57:47.484Z,3.80
2019-02-14T21:00:27.076Z,3.93
2019-02-14T21:02:55.246Z,4.10
2019-02-14T21:05:26.081Z,3.70
2019-02-14T21:07:54.168Z,4.10
2019-02-14T21:10:25.043Z,3.87
2019-02-14T21:12:53.064Z,3.43
2019-02-14T21:15:21.271Z,4.60
2019-02-14T21:17:49.357Z,3.57
2019-02-14T21:20:17.648Z,4.07
2019-02-14T21:22:47.501Z,3.70
2019-02-14T21:25:15.624Z,3.37
2019-02-14T21:27:51.416Z,3.87
2019-02-14T21:30:22.465Z,3.57
2019-02-14T21:32:59.117Z,3.53
2019-02-14T21:35:31.348Z,4.33
2019-02-14T21:38:00.424Z,4.13
2019-02-14T21:40:28.594Z,3.50
2019-02-14T21:42:56.911Z,4.10
2019-02-14T21:45:25.333Z,3.90
2019-02-14T21:47:54.598Z,4.00
2019-02-14T21:50:22.821Z,3.57
2019-02-14T21:52:51.267Z,3.50
2019-02-14T21:55:21.260Z,3.53
2019-02-14T21:57:52.037Z,4.07
2019-02-14T22:00:23.170Z,3.77
2019-02-14T22:02:54.027Z,3.73
2019-02-14T22:05:25.154Z,3.50
2019-02-14T22:07:56.079Z,3.60
2019-02-14T22:10:26.494Z,3.80
2019-02-14T22:12:54.584Z,3.33
2019-02-14T22:15:24.748Z,3.53
2019-02-14T22:17:53.103Z,3.57
2019-02-14T22:20:21.442Z,3.60
2019-02-14T22:22:51.210Z,3.77
2019-02-14T22:25:19.293Z,3.90
2019-02-14T22:27:47.381Z,3.50
2019-02-14T22:30:15.952Z,3.50
2019-02-14T22:32:46.599Z,3.47
2019-02-14T22:35:14.765Z,3.87
2019-02-14T22:37:44.308Z,3.97
2019-02-14T22:40:26.990Z,4.13
2019-02-14T22:42:54.857Z,3.60
2019-02-14T22:45:22.963Z,4.50
2019-02-14T22:47:50.984Z,4.07
2019-02-14T22:50:18.940Z,4.53
2019-02-14T22:52:47.071Z,3.60
2019-02-14T22:55:16.838Z,3.80
2019-02-14T22:57:44.860Z,3.77
2019-02-14T23:00:17.505Z,4.07
2019-02-14T23:02:45.440Z,3.97
2019-02-14T23:05:13.446Z,3.73
2019-02-14T23:07:41.587Z,3.83
2019-02-14T23:10:09.572Z,3.73
2019-02-14T23:12:37.636Z,3.80
2019-02-14T23:15:05.696Z,3.63
2019-02-14T23:17:33.911Z,3.87
2019-02-14T23:20:01.930Z,4.30
2019-02-14T23:22:31.471Z,3.90
2019-02-14T23:24:59.503Z,3.90
2019-02-14T23:27:27.619Z,3.73
2019-02-14T23:29:55.615Z,3.90
2019-02-14T23:32:23.569Z,3.47
2019-02-14T23:34:51.572Z,3.90
2019-02-14T23:37:19.979Z,3.50
2019-02-14T23:39:47.981Z,3.70
2019-02-14T23:42:16.030Z,3.80
2019-02-14T23:44:44.044Z,3.43
2019-02-14T23:47:12.064Z,3.93
2019-02-14T23:49:40.049Z,4.50
2019-02-14T23:52:08.053Z,3.53
2019-02-14T23:54:36.105Z,3.40
2019-02-14T23:57:04.140Z,3.47
2019-02-14T23:59:32.299Z,3.70
